createdAt,value
2023-04-08T00:01:46.093Z,100960.16
2023-04-08T00:04:14.509Z,100958.66
2023-04-08T00:06:41.592Z,100963.50
2023-04-08T00:09:08.255Z,100960.59
2023-04-08T00:11:34.965Z,100954.47
2023-04-08T00:14:04.008Z,100958.91
2023-04-08T00:16:30.869Z,100957.19
2023-04-08T00:18:57.588Z,100962.09
2023-04-08T00:21:24.517Z,100958.47
2023-04-08T00:23:51.128Z,100953.84
2023-04-08T00:26:17.774Z,100956.03
2023-04-08T00:28:45.171Z,100958.56
2023-04-08T00:31:11.925Z,100962.72
2023-04-08T00:33:38.712Z,100960.75
2023-04-08T00:36:05.589Z,100966.03
2023-04-08T00:38:32.365Z,100959.72
2023-04-08T00:40:59.139Z,100967.00
2023-04-08T00:43:26.060Z,100969.66
2023-04-08T00:45:52.773Z,100966.72
2023-04-08T00:48:19.872Z,100971.88
2023-04-08T00:50:47.365Z,100972.28
2023-04-08T00:53:18.912Z,100966.09
2023-04-08T00:55:45.845Z,100962.63
2023-04-08T00:58:14.019Z,100963.16
2023-04-08T01:00:44.416Z,100961.47
2023-04-08T01:03:24.676Z,100958.16
2023-04-08T01:05:54.542Z,100965.00
2023-04-08T01:08:22.211Z,100954.66
2023-04-08T01:10:54.195Z,100951.84
2023-04-08T01:13:24.437Z,100949.34
2023-04-08T01:15:51.271Z,100952.00
2023-04-08T01:18:18.690Z,100952.00
2023-04-08T01:20:45.908Z,100953.00
2023-04-08T01:23:38.300Z,100950.88
2023-04-08T01:26:05.393Z,100950.34
2023-04-08T01:28:33.150Z,100948.50
2023-04-08T01:31:01.098Z,100949.78
2023-04-08T01:33:28.954Z,100948.22
2023-04-08T01:35:56.956Z,100959.97
2023-04-08T01:38:25.957Z,100961.06
2023-04-08T01:40:53.661Z,100958.00
2023-04-08T01:43:20.635Z,100956.63
2023-04-08T01:45:48.373Z,100956.84
2023-04-08T01:48:15.877Z,100960.97
2023-04-08T01:50:43.650Z,100954.81
2023-04-08T01:53:12.939Z,100954.97
2023-04-08T01:55:41.054Z,100952.09
2023-04-08T01:58:09.413Z,100955.94
2023-04-08T02:00:36.970Z,100952.91
2023-04-08T02:03:08.154Z,100953.22
2023-04-08T02:05:35.110Z,100948.00
2023-04-08T02:08:02.825Z,100949.50
2023-04-08T02:10:29.540Z,100957.72
2023-04-08T02:12:56.996Z,100962.16
2023-04-08T02:15:25.282Z,100956.16
2023-04-08T02:17:55.848Z,100961.94
2023-04-08T02:20:24.531Z,100964.19
2023-04-08T02:23:08.362Z,100967.13
2023-04-08T02:25:39.015Z,100957.75
2023-04-08T02:28:08.276Z,100968.50
2023-04-08T02:30:37.621Z,100970.44
2023-04-08T02:33:05.788Z,100969.50
2023-04-08T02:35:32.647Z,100970.78
2023-04-08T02:37:59.609Z,100971.94
2023-04-08T02:40:35.550Z,100969.09
2023-04-08T02:43:03.850Z,100973.78
2023-04-08T02:45:33.132Z,100976.22
2023-04-08T02:48:01.547Z,100972.16
2023-04-08T02:50:28.388Z,100964.94
2023-04-08T02:52:56.007Z,100979.88
2023-04-08T02:55:22.782Z,100976.25
2023-04-08T02:57:49.571Z,100977.81
2023-04-08T03:00:17.420Z,100970.84
2023-04-08T03:02:44.246Z,100962.59
2023-04-08T03:05:11.528Z,100963.72
2023-04-08T03:07:38.560Z,100958.56
2023-04-08T03:10:06.264Z,100968.19
2023-04-08T03:12:33.135Z,100978.81
2023-04-08T03:15:00.955Z,100984.81
2023-04-08T03:17:27.843Z,100988.28
2023-04-08T03:19:54.685Z,100983.53
2023-04-08T03:22:21.391Z,100987.16
2023-04-08T03:24:48.158Z,100985.78
2023-04-08T03:27:14.784Z,100987.16
2023-04-08T03:29:41.560Z,100989.94
2023-04-08T03:32:08.263Z,100985.63
2023-04-08T03:34:35.620Z,100982.97
2023-04-08T03:37:02.530Z,100983.25
2023-04-08T03:39:29.236Z,100989.56
2023-04-08T03:41:55.890Z,100982.97
2023-04-08T03:44:22.752Z,100982.44
2023-04-08T03:46:49.377Z,100983.44
2023-04-08T03:49:16.023Z,100985.63
2023-04-08T03:51:42.631Z,100985.78
2023-04-08T03:54:09.343Z,100983.56
2023-04-08T03:56:35.962Z,100978.66
2023-04-08T03:59:02.824Z,100981.16
2023-04-08T04:01:30.856Z,100979.03
2023-04-08T04:03:57.815Z,100985.50
2023-04-08T04:06:24.900Z,100975.00
2023-04-08T04:08:53.925Z,100984.13
2023-04-08T04:11:21.955Z,100985.22
2023-04-08T04:13:49.170Z,100981.19
2023-04-08T04:16:15.935Z,100989.31
2023-04-08T04:18:42.868Z,100981.38
2023-04-08T04:21:09.825Z,100981.69
2023-04-08T04:23:36.502Z,100977.94
2023-04-08T04:26:08.399Z,100979.69
2023-04-08T04:28:34.985Z,100977.84
2023-04-08T04:31:01.712Z,100979.22
2023-04-08T04:33:28.412Z,100985.69
2023-04-08T04:35:55.106Z,100995.44
2023-04-08T04:38:21.741Z,100986.13
2023-04-08T04:40:48.595Z,100994.63
2023-04-08T04:43:15.327Z,100999.94
2023-04-08T04:45:42.009Z,100997.69
2023-04-08T04:48:08.646Z,100997.00
2023-04-08T04:50:35.336Z,101006.06
2023-04-08T04:53:01.946Z,101003.38
2023-04-08T04:55:28.741Z,101002.81
2023-04-08T04:57:55.359Z,101012.63
2023-04-08T05:00:21.996Z,101012.63
2023-04-08T05:02:48.889Z,101017.47
2023-04-08T05:05:16.214Z,101012.47
2023-04-08T05:07:42.819Z,101015.41
2023-04-08T05:10:11.038Z,101014.03
2023-04-08T05:12:38.920Z,101011.09
2023-04-08T05:15:06.557Z,101015.41
2023-04-08T05:17:33.348Z,101011.25
2023-04-08T05:20:00.331Z,101010.50
2023-04-08T05:22:27.011Z,101014.28
2023-04-08T05:24:53.603Z,101006.03
2023-04-08T05:27:21.710Z,101008.78
2023-04-08T05:29:48.684Z,101017.03
2023-04-08T05:32:16.961Z,101007.41
2023-04-08T05:34:44.087Z,101012.38
2023-04-08T05:37:11.053Z,101016.94
2023-04-08T05:39:37.787Z,101025.88
2023-04-08T05:42:04.442Z,101024.19
2023-04-08T05:44:31.170Z,101025.47
2023-04-08T05:46:58.336Z,101027.34
2023-04-08T05:49:25.069Z,101029.56
2023-04-08T05:51:51.728Z,101031.16
2023-04-08T05:54:21.270Z,101045.50
2023-04-08T05:56:48.919Z,101037.38
2023-04-08T05:59:15.828Z,101045.84
2023-04-08T06:01:42.692Z,101038.56
2023-04-08T06:04:09.647Z,101046.06
2023-04-08T06:06:39.045Z,101045.72
2023-04-08T06:09:05.947Z,101045.22
2023-04-08T06:11:32.610Z,101041.03
2023-04-08T06:13:59.238Z,101044.22
2023-04-08T06:16:25.981Z,101048.94
2023-04-08T06:18:53.025Z,101058.28
2023-04-08T06:21:19.932Z,101070.88
2023-04-08T06:23:46.544Z,101070.50
2023-04-08T06:26:13.433Z,101064.59
2023-04-08T06:28:40.426Z,101065.06
2023-04-08T06:31:07.105Z,101066.81
2023-04-08T06:33:36.109Z,101069.72
2023-04-08T06:36:04.056Z,101071.31
2023-04-08T06:38:31.959Z,101074.25
2023-04-08T06:41:08.223Z,101079.09
2023-04-08T06:43:35.553Z,101071.56
2023-04-08T06:46:02.174Z,101084.25
2023-04-08T06:48:30.560Z,101080.91
2023-04-08T06:50:58.135Z,101094.06
2023-04-08T06:53:25.598Z,101091.78
2023-04-08T06:55:52.541Z,101081.97
2023-04-08T06:58:19.181Z,101086.84
2023-04-08T07:00:45.877Z,101094.06
2023-04-08T07:03:12.847Z,101091.66
2023-04-08T07:05:39.705Z,101092.56
2023-04-08T07:08:06.616Z,101095.09
2023-04-08T07:10:34.928Z,101093.50
2023-04-08T07:13:01.900Z,101100.25
2023-04-08T07:15:28.566Z,101099.63
2023-04-08T07:17:58.870Z,101102.59
2023-04-08T07:20:26.078Z,101102.97
2023-04-08T07:22:52.767Z,101109.81
2023-04-08T07:25:19.446Z,101106.72
2023-04-08T07:27:46.189Z,101111.50
2023-04-08T07:30:12.829Z,101115.59
2023-04-08T07:32:39.600Z,101108.38
2023-04-08T07:35:06.552Z,101114.38
2023-04-08T07:37:33.239Z,101108.69
2023-04-08T07:39:59.879Z,101115.28
2023-04-08T07:42:27.319Z,101110.13
2023-04-08T07:44:54.048Z,101120.16
2023-04-08T07:47:21.147Z,101118.03
2023-04-08T07:49:48.406Z,101124.88
2023-04-08T07:52:15.698Z,101124.63
2023-04-08T07:54:42.336Z,101121.72
2023-04-08T07:57:08.990Z,101118.97
2023-04-08T07:59:36.168Z,101120.50
2023-04-08T08:02:03.353Z,101119.09
2023-04-08T08:04:30.280Z,101111.19
2023-04-08T08:06:57.258Z,101125.00
2023-04-08T08:09:23.955Z,101122.66
2023-04-08T08:11:50.852Z,101127.31
2023-04-08T08:14:17.545Z,101127.34
2023-04-08T08:16:44.743Z,101137.84
2023-04-08T08:19:12.431Z,101143.94
2023-04-08T08:21:39.662Z,101147.00
2023-04-08T08:24:07.020Z,101144.34
2023-04-08T08:26:37.059Z,101138.56
2023-04-08T08:29:08.612Z,101147.44
2023-04-08T08:31:35.773Z,101149.56
2023-04-08T08:34:02.932Z,101146.69
2023-04-08T08:36:29.608Z,101152.09
2023-04-08T08:38:56.386Z,101159.09
2023-04-08T08:41:25.906Z,101148.84
2023-04-08T08:43:52.871Z,101151.28
2023-04-08T08:46:19.684Z,101152.84
2023-04-08T08:48:46.592Z,101152.75
2023-04-08T08:51:14.721Z,101152.28
2023-04-08T08:53:45.683Z,101157.03
2023-04-08T08:58:42.577Z,101158.97
2023-04-08T09:01:35.597Z,101160.97
2023-04-08T09:04:17.317Z,101162.94
2023-04-08T09:06:46.616Z,101161.19
2023-04-08T09:09:13.832Z,101164.66
2023-04-08T09:11:42.429Z,101165.84
2023-04-08T09:14:22.547Z,101172.97
2023-04-08T09:16:52.018Z,101171.19
2023-04-08T09:19:21.892Z,101171.97
2023-04-08T09:22:05.877Z,101165.28
2023-04-08T09:24:32.644Z,101174.25
2023-04-08T09:26:59.410Z,101174.31
2023-04-08T09:29:32.422Z,101179.00
2023-04-08T09:32:01.865Z,101181.53
2023-04-08T09:34:29.728Z,101189.38
2023-04-08T09:36:56.765Z,101189.56
2023-04-08T09:39:24.048Z,101195.91
2023-04-08T09:41:53.222Z,101199.56
2023-04-08T09:44:22.163Z,101204.25
2023-04-08T09:47:01.433Z,101201.25
2023-04-08T09:49:50.176Z,101199.56
2023-04-08T09:52:35.620Z,101203.44
2023-04-08T09:55:06.620Z,101200.09
2023-04-08T09:57:56.670Z,101201.91
2023-04-08T10:00:31.719Z,101209.25
2023-04-08T10:03:01.917Z,101208.91
2023-04-08T10:05:29.641Z,101214.22
2023-04-08T10:07:56.954Z,101215.09
2023-04-08T10:10:24.660Z,101221.25
2023-04-08T10:13:00.982Z,101222.25
2023-04-08T10:24:08.117Z,101234.25
2023-04-08T10:35:17.406Z,101233.94
2023-04-08T10:37:44.349Z,101234.94
2023-04-08T10:40:20.566Z,101242.31
2023-04-08T10:42:48.076Z,101248.16
2023-04-08T10:45:18.286Z,101242.81
2023-04-08T10:47:46.672Z,101244.81
2023-04-08T10:50:14.976Z,101241.63
2023-04-08T10:52:52.484Z,101247.66
2023-04-08T10:55:26.670Z,101237.13
2023-04-08T10:57:54.486Z,101242.28
2023-04-08T11:00:36.855Z,101241.66
2023-04-08T11:03:05.196Z,101238.75
2023-04-08T11:05:32.952Z,101246.41
2023-04-08T11:08:00.531Z,101250.28
2023-04-08T11:10:28.752Z,101248.91
2023-04-08T11:12:56.695Z,101246.41
2023-04-08T11:15:38.099Z,101244.75
2023-04-08T11:18:07.876Z,101258.94
2023-04-08T11:20:40.478Z,101256.16
2023-04-08T11:23:23.061Z,101247.78
2023-04-08T11:25:50.004Z,101247.41
2023-04-08T11:28:16.996Z,101258.41
2023-04-08T11:30:44.110Z,101253.41
2023-04-08T11:33:13.423Z,101243.38
2023-04-08T11:35:44.609Z,101253.28
2023-04-08T11:38:12.164Z,101256.16
2023-04-08T11:40:56.312Z,101252.06
2023-04-08T11:43:23.499Z,101250.25
2023-04-08T11:46:10.912Z,101254.09
2023-04-08T11:48:43.081Z,101261.38
2023-04-08T11:51:09.869Z,101261.13
2023-04-08T11:53:39.428Z,101263.53
2023-04-08T11:56:17.363Z,101259.88
2023-04-08T11:58:44.215Z,101265.75
2023-04-08T12:01:11.279Z,101264.19
2023-04-08T12:03:42.679Z,101273.38
2023-04-08T12:06:09.656Z,101269.34
2023-04-08T12:08:36.609Z,101268.72
2023-04-08T12:11:16.552Z,101267.78
2023-04-08T12:13:46.135Z,101266.16
2023-04-08T12:16:12.919Z,101270.00
2023-04-08T12:18:45.119Z,101268.03
2023-04-08T12:21:11.874Z,101266.03
2023-04-08T12:23:41.807Z,101270.59
2023-04-08T12:26:17.209Z,101262.66
2023-04-08T12:28:43.925Z,101275.09
2023-04-08T12:31:15.500Z,101275.03
2023-04-08T12:33:47.663Z,101273.91
2023-04-08T12:36:14.390Z,101272.44
2023-04-08T12:38:43.782Z,101276.72
2023-04-08T12:41:10.577Z,101267.94
2023-04-08T12:43:37.696Z,101271.31
2023-04-08T12:46:05.863Z,101276.47
2023-04-08T12:48:37.190Z,101277.38
2023-04-08T12:51:03.916Z,101272.13
2023-04-08T12:53:30.564Z,101279.03
2023-04-08T12:55:57.639Z,101276.84
2023-04-08T12:58:25.397Z,101279.19
2023-04-08T13:00:52.191Z,101275.31
2023-04-08T13:03:19.104Z,101281.47
2023-04-08T13:05:55.717Z,101287.31
2023-04-08T13:08:23.275Z,101286.19
2023-04-08T13:10:50.442Z,101288.03
2023-04-08T13:13:24.703Z,101284.53
2023-04-08T13:15:52.292Z,101278.69
2023-04-08T13:18:18.974Z,101278.34
2023-04-08T13:20:45.912Z,101283.53
2023-04-08T13:23:14.529Z,101276.53
2023-04-08T13:25:41.768Z,101276.03
2023-04-08T13:28:08.737Z,101273.66
2023-04-08T13:30:35.752Z,101274.66
2023-04-08T13:33:02.447Z,101279.88
2023-04-08T13:35:29.178Z,101260.66
2023-04-08T13:37:56.096Z,101265.28
2023-04-08T13:40:22.761Z,101270.34
2023-04-08T13:42:49.403Z,101263.28
2023-04-08T13:45:16.026Z,101273.50
2023-04-08T13:47:45.008Z,101270.63
2023-04-08T13:50:19.539Z,101263.44
2023-04-08T13:52:46.600Z,101263.78
2023-04-08T13:55:16.218Z,101272.16
2023-04-08T13:57:52.138Z,101264.97
2023-04-08T14:00:18.816Z,101264.16
2023-04-08T14:02:47.276Z,101267.84
2023-04-08T14:05:25.602Z,101263.97
2023-04-08T14:07:52.341Z,101260.50
2023-04-08T14:10:19.072Z,101259.63
2023-04-08T14:12:51.000Z,101254.97
2023-04-08T14:15:17.719Z,101264.69
2023-04-08T14:17:47.559Z,101261.81
2023-04-08T14:20:24.721Z,101246.66
2023-04-08T14:22:51.362Z,101262.00
2023-04-08T14:25:20.004Z,101260.50
2023-04-08T14:27:57.962Z,101258.31
2023-04-08T14:30:26.901Z,101260.97
2023-04-08T14:32:54.486Z,101258.00
2023-04-08T14:35:24.626Z,101255.63
2023-04-08T14:37:51.284Z,101255.63
2023-04-08T14:40:18.050Z,101255.47
2023-04-08T14:42:45.575Z,101258.63
2023-04-08T14:45:14.472Z,101254.41
2023-04-08T14:47:46.751Z,101254.94
2023-04-08T14:50:16.803Z,101258.94
2023-04-08T14:52:45.314Z,101248.06
2023-04-08T14:55:18.265Z,101257.72
2023-04-08T14:57:48.024Z,101258.97
2023-04-08T15:00:15.016Z,101256.94
2023-04-08T15:02:47.977Z,101249.69
2023-04-08T15:05:14.651Z,101252.94
2023-04-08T15:07:41.957Z,101261.25
2023-04-08T15:10:09.380Z,101259.25
2023-04-08T15:12:36.454Z,101264.69
2023-04-08T15:15:04.570Z,101264.06
2023-04-08T15:17:31.354Z,101260.88
2023-04-08T15:19:58.789Z,101261.03
2023-04-08T15:22:34.334Z,101266.13
2023-04-08T15:25:03.861Z,101271.66
2023-04-08T15:27:31.339Z,101271.53
2023-04-08T15:30:06.303Z,101262.00
2023-04-08T15:32:33.138Z,101265.00
2023-04-08T15:35:00.654Z,101267.66
2023-04-08T15:37:38.037Z,101271.50
2023-04-08T15:40:07.620Z,101273.19
2023-04-08T15:42:35.653Z,101271.88
2023-04-08T15:45:07.969Z,101266.34
2023-04-08T15:47:35.305Z,101270.38
2023-04-08T15:50:02.230Z,101260.69
2023-04-08T15:52:29.168Z,101261.50
2023-04-08T15:54:55.836Z,101265.66
2023-04-08T15:57:26.734Z,101269.19
2023-04-08T15:59:53.658Z,101271.38
2023-04-08T16:02:23.163Z,101271.53
2023-04-08T16:04:52.142Z,101274.88
2023-04-08T16:07:19.109Z,101274.53
2023-04-08T16:09:45.990Z,101273.84
2023-04-08T16:12:14.765Z,101277.16
2023-04-08T16:14:41.438Z,101277.66
2023-04-08T16:17:10.680Z,101283.97
2023-04-08T16:19:37.767Z,101283.50
2023-04-08T16:22:04.517Z,101284.19
2023-04-08T16:24:31.230Z,101289.84
2023-04-08T16:26:57.878Z,101288.78
2023-04-08T16:29:24.663Z,101285.63
2023-04-08T16:31:53.415Z,101291.78
2023-04-08T16:34:23.190Z,101290.09
2023-04-08T16:36:49.988Z,101293.28
2023-04-08T16:39:16.696Z,101294.78
2023-04-08T16:41:43.650Z,101288.78
2023-04-08T16:44:12.530Z,101295.44
2023-04-08T16:46:39.280Z,101297.41
2023-04-08T16:49:06.035Z,101284.25
2023-04-08T16:51:32.654Z,101294.75
2023-04-08T16:53:59.775Z,101295.75
2023-04-08T16:56:27.174Z,101299.22
2023-04-08T16:58:53.921Z,101300.03
2023-04-08T17:01:20.967Z,101295.19
2023-04-08T17:03:48.816Z,101301.84
2023-04-08T17:06:15.762Z,101297.47
2023-04-08T17:08:45.906Z,101301.63
2023-04-08T17:11:14.544Z,101306.78
2023-04-08T17:13:42.916Z,101303.78
2023-04-08T17:16:17.157Z,101303.28
2023-04-08T17:18:44.800Z,101308.44
2023-04-08T17:21:12.466Z,101306.09
2023-04-08T17:23:39.177Z,101309.75
2023-04-08T17:26:11.920Z,101308.94
2023-04-08T17:28:39.303Z,101302.75
2023-04-08T17:31:06.345Z,101310.94
2023-04-08T17:33:50.616Z,101307.38
2023-04-08T17:36:17.991Z,101307.16
2023-04-08T17:38:44.894Z,101308.94
2023-04-08T17:41:13.390Z,101305.75
2023-04-08T17:43:42.497Z,101304.03
2023-04-08T17:46:09.255Z,101304.63
2023-04-08T17:48:36.633Z,101303.06
2023-04-08T17:51:05.683Z,101301.63
2023-04-08T17:53:38.829Z,101306.78
2023-04-08T17:56:09.197Z,101306.97
2023-04-08T17:58:36.079Z,101309.81
2023-04-08T18:01:05.555Z,101314.97
2023-04-08T18:03:35.238Z,101314.72
2023-04-08T18:06:04.084Z,101307.78
2023-04-08T18:08:33.349Z,101315.72
2023-04-08T18:11:00.048Z,101316.53
2023-04-08T18:13:26.764Z,101314.19
2023-04-08T18:15:53.580Z,101317.53
2023-04-08T18:18:22.010Z,101322.00
2023-04-08T18:20:52.418Z,101319.19
2023-04-08T18:23:19.270Z,101319.03
2023-04-08T18:25:46.768Z,101321.31
2023-04-08T18:28:13.673Z,101324.59
2023-04-08T18:30:40.732Z,101322.94
2023-04-08T18:33:07.684Z,101326.53
2023-04-08T18:35:34.575Z,101329.94
2023-04-08T18:38:01.282Z,101338.31
2023-04-08T18:40:28.084Z,101337.09
2023-04-08T18:42:54.810Z,101341.22
2023-04-08T18:45:21.557Z,101335.50
2023-04-08T18:47:48.323Z,101338.19
2023-04-08T18:50:15.088Z,101338.31
2023-04-08T18:52:41.952Z,101331.69
2023-04-08T18:55:08.960Z,101329.88
2023-04-08T18:57:35.860Z,101335.34
2023-04-08T19:00:02.609Z,101333.66
2023-04-08T19:02:29.408Z,101337.31
2023-04-08T19:04:56.389Z,101338.78
2023-04-08T19:07:23.404Z,101341.47
2023-04-08T19:09:50.034Z,101348.09
2023-04-08T19:12:16.784Z,101350.28
2023-04-08T19:14:43.517Z,101342.44
2023-04-08T19:17:11.079Z,101343.56
2023-04-08T19:19:38.903Z,101339.78
2023-04-08T19:22:06.109Z,101343.44
2023-04-08T19:24:33.316Z,101355.09
2023-04-08T19:27:00.538Z,101354.09
2023-04-08T19:29:29.745Z,101342.59
2023-04-08T19:31:57.413Z,101350.94
2023-04-08T19:34:24.157Z,101344.13
2023-04-08T19:36:50.892Z,101344.81
2023-04-08T19:39:18.535Z,101347.09
2023-04-08T19:41:45.667Z,101348.91
2023-04-08T19:44:14.570Z,101347.59
2023-04-08T19:46:41.328Z,101350.06
2023-04-08T19:49:08.074Z,101346.03
2023-04-08T19:51:34.770Z,101351.72
2023-04-08T19:54:01.540Z,101338.34
2023-04-08T19:56:32.482Z,101344.19
2023-04-08T19:58:59.775Z,101349.75
2023-04-08T20:01:26.602Z,101343.28
2023-04-08T20:03:53.463Z,101340.63
2023-04-08T20:06:20.720Z,101339.09
2023-04-08T20:08:49.203Z,101347.09
2023-04-08T20:11:16.120Z,101354.63
2023-04-08T20:13:43.156Z,101358.97
2023-04-08T20:16:09.837Z,101351.97
2023-04-08T20:18:36.575Z,101354.47
2023-04-08T20:21:03.513Z,101354.53
2023-04-08T20:23:33.425Z,101354.88
2023-04-08T20:26:00.142Z,101352.78
2023-04-08T20:28:27.184Z,101355.56
2023-04-08T20:30:54.171Z,101353.53
2023-04-08T20:33:21.087Z,101354.84
2023-04-08T20:35:50.553Z,101353.50
2023-04-08T20:38:17.640Z,101352.41
2023-04-08T20:40:44.829Z,101357.44
2023-04-08T20:43:11.736Z,101357.16
2023-04-08T20:45:38.333Z,101354.38
2023-04-08T20:48:05.829Z,101357.34
2023-04-08T20:50:32.884Z,101354.56
2023-04-08T20:52:59.813Z,101355.97
2023-04-08T20:55:26.477Z,101355.41
2023-04-08T20:57:53.160Z,101356.97
2023-04-08T21:00:19.959Z,101350.66
2023-04-08T21:02:47.987Z,101348.00
2023-04-08T21:05:14.998Z,101345.34
2023-04-08T21:07:44.486Z,101342.00
2023-04-08T21:10:12.650Z,101349.56
2023-04-08T21:12:39.328Z,101350.94
2023-04-08T21:15:06.242Z,101344.66
2023-04-08T21:17:32.965Z,101346.47
2023-04-08T21:19:59.652Z,101344.09
2023-04-08T21:22:26.356Z,101347.59
2023-04-08T21:24:53.003Z,101349.56
2023-04-08T21:27:19.649Z,101342.97
2023-04-08T21:29:46.265Z,101342.69
2023-04-08T21:32:14.920Z,101345.63
2023-04-08T21:34:41.932Z,101335.84
2023-04-08T21:37:08.598Z,101337.97
2023-04-08T21:39:35.337Z,101335.44
2023-04-08T21:42:02.028Z,101330.97
2023-04-08T21:44:31.472Z,101333.06
2023-04-08T21:47:00.406Z,101338.50
2023-04-08T21:49:29.813Z,101340.19
2023-04-08T21:51:56.596Z,101330.63
2023-04-08T21:54:23.433Z,101336.06
2023-04-08T21:56:50.222Z,101331.31
2023-04-08T21:59:16.854Z,101329.06
2023-04-08T22:01:43.580Z,101331.84
2023-04-08T22:04:10.346Z,101330.06
2023-04-08T22:06:37.040Z,101326.44
2023-04-08T22:09:03.935Z,101335.63
2023-04-08T22:11:30.866Z,101327.63
2023-04-08T22:13:57.627Z,101332.22
2023-04-08T22:16:24.493Z,101324.22
2023-04-08T22:18:51.471Z,101327.84
2023-04-08T22:21:18.514Z,101323.34
2023-04-08T22:23:46.090Z,101321.03
2023-04-08T22:26:13.513Z,101320.06
2023-04-08T22:28:41.997Z,101311.50
2023-04-08T22:31:11.001Z,101321.34
2023-04-08T22:33:41.560Z,101312.09
2023-04-08T22:36:08.259Z,101305.00
2023-04-08T22:38:35.596Z,101306.84
2023-04-08T22:41:02.303Z,101305.59
2023-04-08T22:43:28.935Z,101297.97
2023-04-08T22:45:55.779Z,101295.50
2023-04-08T22:48:22.413Z,101298.13
2023-04-08T22:50:49.028Z,101290.28
2023-04-08T22:53:15.791Z,101293.66
2023-04-08T22:55:42.427Z,101290.69
2023-04-08T22:58:09.053Z,101292.41
2023-04-08T23:00:35.709Z,101293.38
2023-04-08T23:03:04.781Z,101291.13
2023-04-08T23:05:31.734Z,101293.34
2023-04-08T23:07:58.477Z,101291.56
2023-04-08T23:10:25.295Z,101289.97
2023-04-08T23:12:51.927Z,101293.81
2023-04-08T23:15:18.670Z,101295.19
2023-04-08T23:17:45.359Z,101291.97
2023-04-08T23:20:12.408Z,101284.06
2023-04-08T23:22:39.026Z,101281.41
2023-04-08T23:25:06.423Z,101285.53
2023-04-08T23:27:33.104Z,101272.84
2023-04-08T23:30:05.437Z,101276.06
2023-04-08T23:32:35.720Z,101268.38
2023-04-08T23:35:02.860Z,101268.06
2023-04-08T23:37:29.610Z,101263.59
2023-04-08T23:39:56.355Z,101256.31
2023-04-08T23:42:27.208Z,101262.88
2023-04-08T23:44:54.767Z,101265.47
2023-04-08T23:47:21.721Z,101260.44
2023-04-08T23:49:49.146Z,101253.47
2023-04-08T23:52:15.867Z,101259.72
2023-04-08T23:54:42.601Z,101251.41
2023-04-08T23:57:09.196Z,101253.03
2023-04-08T23:59:35.898Z,101252.22
